Time;durP1;ratioP1;P1;durP2;ratioP2;P2;SDS_P1;SDS_P2;PMS_P1;PMS_P2;Temp;Humidity;BMP_temperature;BMP_pressure;BME280_temperature;BME280_humidity;BME280_pressure;Samples;Min_cycle;Max_cycle;Signal;HPM_P1;HPM_P2
2021/07/27 00:01:10;;;;;;;12.75;7.38;;;;;;;16.89;100.00;100923.41;5066403;28;20084;-83
2021/07/27 00:03:39;;;;;;;10.48;7.78;;;;;;;16.88;100.00;100929.72;5076630;28;20043;-82
2021/07/27 00:06:05;;;;;;;11.52;7.72;;;;;;;16.90;100.00;100927.72;5077846;28;20485;-85
2021/07/27 00:08:34;;;;;;;8.82;7.20;;;;;;;16.91;100.00;100929.38;5090987;28;20059;-81
2021/07/27 00:10:59;;;;;;;9.90;6.95;;;;;;;16.93;100.00;100927.34;5079324;28;20035;-82
2021/07/27 00:13:25;;;;;;;10.57;7.95;;;;;;;16.87;100.00;100925.41;5047563;28;20027;-85
2021/07/27 00:15:50;;;;;;;7.97;7.05;;;;;;;16.80;100.00;100908.59;5075973;28;20454;-83
2021/07/27 00:18:16;;;;;;;9.65;7.68;;;;;;;16.79;100.00;100906.13;5057604;28;20113;-84
2021/07/27 00:20:41;;;;;;;10.60;8.02;;;;;;;16.73;100.00;100899.75;5079623;28;20032;-83
2021/07/27 00:23:07;;;;;;;9.27;6.60;;;;;;;16.70;100.00;100914.16;5076654;28;20030;-83
2021/07/27 00:25:32;;;;;;;8.55;6.65;;;;;;;16.62;100.00;100908.13;5060346;28;20122;-81
2021/07/27 00:27:58;;;;;;;8.10;6.55;;;;;;;16.58;100.00;100905.03;5087536;28;20378;-82
2021/07/27 00:30:24;;;;;;;9.98;6.60;;;;;;;16.54;100.00;100899.28;5075320;28;20039;-81
2021/07/27 00:32:49;;;;;;;8.43;6.13;;;;;;;16.55;100.00;100900.09;5064850;28;20041;-81
2021/07/27 00:35:15;;;;;;;8.55;6.55;;;;;;;16.51;100.00;100893.50;5097118;28;20042;-82
2021/07/27 00:37:45;;;;;;;7.72;6.60;;;;;;;16.45;100.00;100896.91;5078316;28;20043;-84
2021/07/27 00:40:12;;;;;;;10.43;6.55;;;;;;;16.46;100.00;100903.81;5075654;28;20381;-84
2021/07/27 00:42:45;;;;;;;7.47;6.25;;;;;;;16.45;100.00;100910.94;5069630;27;20458;-84
2021/07/27 00:45:12;;;;;;;8.85;6.63;;;;;;;16.48;100.00;100917.69;5074945;28;20052;-82
2021/07/27 00:47:38;;;;;;;8.40;6.22;;;;;;;16.38;100.00;100903.91;5075231;28;20111;-83
2021/07/27 00:50:07;;;;;;;9.35;6.30;;;;;;;16.39;100.00;100908.19;5099265;28;20576;-84
2021/07/27 00:52:33;;;;;;;8.55;6.40;;;;;;;16.36;100.00;100906.75;5078134;28;20031;-84
2021/07/27 00:54:58;;;;;;;9.45;6.85;;;;;;;16.35;100.00;100902.47;5059045;28;20035;-83
2021/07/27 00:57:24;;;;;;;8.88;6.93;;;;;;;16.31;100.00;100903.78;5079423;28;20259;-81
2021/07/27 00:59:50;;;;;;;8.32;6.07;;;;;;;16.31;100.00;100902.00;5074531;28;20031;-83
2021/07/27 01:02:15;;;;;;;8.30;6.50;;;;;;;16.27;100.00;100908.63;5074485;28;20764;-83
2021/07/27 01:04:41;;;;;;;8.25;6.82;;;;;;;16.25;100.00;100905.34;5058114;28;20036;-83
2021/07/27 01:07:07;;;;;;;9.15;7.07;;;;;;;16.23;100.00;100910.00;5063102;28;20564;-84
2021/07/27 01:09:32;;;;;;;10.52;6.50;;;;;;;16.23;100.00;100901.25;5057211;28;20038;-83
2021/07/27 01:12:02;;;;;;;8.50;7.05;;;;;;;16.18;100.00;100901.78;5074334;28;20122;-83
2021/07/27 01:14:27;;;;;;;12.50;6.95;;;;;;;16.17;100.00;100904.63;5079443;28;20500;-83
2021/07/27 01:16:53;;;;;;;8.85;6.90;;;;;;;16.22;100.00;100903.06;5079265;28;20027;-83
2021/07/27 01:40:51;;;;;;;11.43;6.22;;;;;;;16.04;100.00;100906.03;5078405;28;20039;-84
2021/07/27 01:43:19;;;;;;;10.20;6.30;;;;;;;16.07;100.00;100913.63;5058392;28;20024;-83
2021/07/27 01:45:45;;;;;;;9.73;6.53;;;;;;;16.07;100.00;100916.25;5073227;28;20441;-85
2021/07/27 01:48:11;;;;;;;11.48;7.45;;;;;;;16.11;100.00;100912.25;5097022;28;20132;-83
2021/07/27 01:50:36;;;;;;;9.45;7.15;;;;;;;16.17;100.00;100905.44;5063586;28;20039;-83
2021/07/27 01:53:04;;;;;;;9.52;7.15;;;;;;;16.16;100.00;100914.34;5079737;28;20031;-84
2021/07/27 01:55:34;;;;;;;9.75;6.18;;;;;;;16.04;100.00;100903.38;5074447;28;20040;-84
2021/07/27 01:58:01;;;;;;;9.48;5.90;;;;;;;16.15;100.00;100915.38;5073668;28;20036;-83
2021/07/27 02:00:26;;;;;;;10.95;6.45;;;;;;;16.13;100.00;100904.97;5053708;28;20071;-81
2021/07/27 02:02:52;;;;;;;9.57;6.90;;;;;;;16.25;100.00;100917.75;5097207;28;20063;-85
2021/07/27 02:05:18;;;;;;;11.30;7.32;;;;;;;16.15;100.00;100905.59;5072086;28;20028;-83
2021/07/27 02:07:53;;;;;;;9.60;7.10;;;;;;;16.15;100.00;100921.47;5062409;28;20039;-83
2021/07/27 02:10:19;;;;;;;7.50;6.70;;;;;;;16.12;100.00;100932.44;5062235;28;20527;-82
2021/07/27 02:13:01;;;;;;;9.77;7.28;;;;;;;16.22;100.00;100926.03;5059043;28;20060;-84
2021/07/27 02:15:43;;;;;;;12.48;6.97;;;;;;;16.25;100.00;100931.00;5076562;28;20528;-81
2021/07/27 02:18:09;;;;;;;10.00;7.38;;;;;;;16.26;100.00;100925.53;5078931;28;20039;-84
2021/07/27 02:20:36;;;;;;;8.00;7.07;;;;;;;16.25;100.00;100929.16;5078663;28;20038;-83
2021/07/27 02:23:05;;;;;;;8.57;6.40;;;;;;;16.15;100.00;100923.31;5081034;28;20103;-82
2021/07/27 02:25:32;;;;;;;14.60;6.78;;;;;;;16.08;100.00;100930.31;5094477;28;20040;-82
2021/07/27 02:27:59;;;;;;;9.25;6.68;;;;;;;16.05;100.00;100931.50;5082430;28;20096;-83
2021/07/27 02:30:24;;;;;;;9.88;7.18;;;;;;;16.03;100.00;100925.56;5078600;28;20034;-83
2021/07/27 02:32:50;;;;;;;9.60;7.57;;;;;;;15.95;100.00;100922.97;5103577;28;20456;-83
2021/07/27 02:35:15;;;;;;;8.85;7.03;;;;;;;15.89;100.00;100924.50;5066349;28;20035;-82
2021/07/27 02:37:41;;;;;;;11.73;6.55;;;;;;;15.86;100.00;100930.16;5075635;28;20118;-83
2021/07/27 02:40:10;;;;;;;9.63;6.40;;;;;;;15.78;100.00;100922.25;5054819;28;20084;-83
2021/07/27 02:42:35;;;;;;;10.85;7.07;;;;;;;15.77;100.00;100921.44;5080349;28;20024;-83
2021/07/27 02:45:09;;;;;;;10.85;6.75;;;;;;;15.79;100.00;100915.19;5063963;28;20061;-83
2021/07/27 02:47:34;;;;;;;10.18;6.55;;;;;;;15.74;100.00;100918.34;5089965;28;20036;-82
2021/07/27 02:50:00;;;;;;;11.43;6.95;;;;;;;15.80;100.00;100927.38;5079864;28;20027;-83
2021/07/27 02:52:26;;;;;;;10.20;7.28;;;;;;;15.76;100.00;100934.84;5066729;28;20035;-83
2021/07/27 02:54:51;;;;;;;11.43;7.07;;;;;;;15.74;100.00;100935.00;5093170;28;20039;-83
2021/07/27 02:57:17;;;;;;;12.98;7.07;;;;;;;15.72;100.00;100939.63;5077479;28;20036;-83
2021/07/27 02:59:42;;;;;;;8.38;7.00;;;;;;;15.68;100.00;100940.97;5081641;28;20061;-83
2021/07/27 03:02:08;;;;;;;11.05;7.25;;;;;;;15.69;100.00;100947.94;5066483;28;20027;-82
2021/07/27 03:04:33;;;;;;;9.63;6.80;;;;;;;15.62;100.00;100927.66;5067221;28;20038;-82
2021/07/27 03:06:59;;;;;;;12.52;6.57;;;;;;;15.71;100.00;100942.47;5079112;28;20042;-83
2021/07/27 03:09:27;;;;;;;11.75;6.65;;;;;;;15.72;100.00;100949.38;5066596;28;20088;-82
2021/07/27 03:11:53;;;;;;;13.52;7.30;;;;;;;15.71;100.00;100939.81;5080033;28;20188;-82
2021/07/27 03:14:18;;;;;;;9.20;7.72;;;;;;;15.71;100.00;100939.81;5083026;28;20065;-83
2021/07/27 03:16:44;;;;;;;11.00;7.80;;;;;;;15.70;100.00;100931.03;5058418;28;20043;-83
2021/07/27 03:19:09;;;;;;;10.93;7.63;;;;;;;15.62;100.00;100927.66;5085237;28;20028;-82
2021/07/27 03:21:35;;;;;;;12.15;7.57;;;;;;;15.69;100.00;100931.22;5084946;28;20113;-82
2021/07/27 03:24:00;;;;;;;12.63;7.47;;;;;;;15.65;100.00;100922.84;5079244;28;20565;-81
2021/07/27 03:26:26;;;;;;;10.93;7.70;;;;;;;15.62;100.00;100925.00;5100082;28;20031;-81
2021/07/27 03:28:52;;;;;;;9.77;7.30;;;;;;;15.70;100.00;100935.53;5062986;28;20035;-82
2021/07/27 03:31:18;;;;;;;8.65;7.68;;;;;;;15.61;100.00;100926.81;5082703;28;20063;-82
2021/07/27 03:33:44;;;;;;;8.98;7.60;;;;;;;15.71;100.00;100934.53;5098406;28;20074;-81
2021/07/27 03:36:10;;;;;;;11.23;8.43;;;;;;;15.65;100.00;100930.78;5076072;28;20048;-81
2021/07/27 03:38:39;;;;;;;8.60;7.18;;;;;;;15.69;100.00;100937.34;5061146;28;20154;-82
2021/07/27 03:41:12;;;;;;;9.10;7.03;;;;;;;15.66;100.00;100936.88;5054875;28;20118;-81
2021/07/27 03:43:38;;;;;;;;;;;;;;;15.64;100.00;100939.69;5083147;28;20035;-82
2021/07/27 03:46:04;;;;;;;10.05;7.72;;;;;;;15.66;100.00;100934.22;5097212;28;19960;-80
2021/07/27 03:48:30;;;;;;;11.70;7.53;;;;;;;15.66;100.00;100937.69;5078814;28;20032;-82
2021/07/27 03:50:55;;;;;;;10.38;7.80;;;;;;;15.67;100.00;100939.34;5082721;28;20050;-83
2021/07/27 03:53:22;;;;;;;11.57;7.60;;;;;;;15.69;100.00;100942.63;5065627;28;20554;-81
2021/07/27 03:55:47;;;;;;;11.02;7.78;;;;;;;15.69;100.00;100941.78;5069150;28;20237;-82
2021/07/27 03:58:13;;;;;;;11.68;7.90;;;;;;;15.69;100.00;100940.00;5093860;28;20519;-81
2021/07/27 04:00:38;;;;;;;10.70;8.07;;;;;;;15.71;100.00;100939.81;5096739;28;20035;-82
2021/07/27 04:03:05;;;;;;;13.10;8.68;;;;;;;15.63;100.00;100932.75;5058010;28;20024;-82
2021/07/27 04:05:34;;;;;;;9.48;7.65;;;;;;;15.81;100.00;100952.84;5097828;28;20489;-82
2021/07/27 04:08:00;;;;;;;10.75;7.43;;;;;;;15.84;100.00;100950.66;5081300;28;20122;-81
2021/07/27 04:10:25;;;;;;;12.13;7.80;;;;;;;15.87;100.00;100952.94;5062801;28;20046;-81
2021/07/27 04:12:51;;;;;;;10.52;8.02;;;;;;;15.96;100.00;100954.53;5093022;28;20583;-81
2021/07/27 04:15:17;;;;;;;12.25;7.82;;;;;;;16.00;100.00;100954.19;5081075;28;20031;-83
2021/07/27 04:17:43;;;;;;;13.77;8.57;;;;;;;16.04;100.00;100948.34;5081295;28;20023;-83
2021/07/27 04:20:09;;;;;;;13.48;8.82;;;;;;;16.04;100.00;100952.84;5078069;28;20097;-82
2021/07/27 04:22:34;;;;;;;12.00;8.77;;;;;;;16.09;100.00;100961.06;5063550;28;20126;-82
2021/07/27 04:25:00;;;;;;;14.52;9.20;;;;;;;16.16;100.00;100969.91;5081490;28;20074;-81
2021/07/27 04:27:25;;;;;;;11.63;9.25;;;;;;;16.17;100.00;100968.13;5065141;28;20031;-82
2021/07/27 04:29:52;;;;;;;11.20;8.95;;;;;;;16.22;100.00;100968.38;5085383;28;20032;-83
2021/07/27 04:32:17;;;;;;;12.38;8.80;;;;;;;16.25;100.00;100962.75;5092720;28;20036;-81
2021/07/27 04:34:43;;;;;;;11.18;9.13;;;;;;;16.36;100.00;100970.25;5082039;27;20107;-83
2021/07/27 04:37:08;;;;;;;14.80;9.90;;;;;;;16.47;100.00;100974.31;5069788;28;20673;-82
2021/07/27 04:39:35;;;;;;;12.45;9.10;;;;;;;16.59;100.00;100970.22;5096868;28;20085;-81
2021/07/27 04:42:00;;;;;;;13.23;9.45;;;;;;;16.69;100.00;100968.13;5077984;28;20502;-80
2021/07/27 04:44:27;;;;;;;15.57;9.05;;;;;;;16.75;100.00;100974.53;5061783;28;20031;-80
2021/07/27 04:46:52;;;;;;;12.07;8.98;;;;;;;16.81;100.00;100978.28;5072518;28;20489;-82
2021/07/27 04:49:18;;;;;;;11.48;9.50;;;;;;;16.91;100.00;100979.69;5080278;28;20043;-82
2021/07/27 04:51:43;;;;;;;10.95;8.85;;;;;;;17.06;100.00;100979.69;5086609;28;20027;-82
2021/07/27 04:54:15;;;;;;;9.70;8.43;;;;;;;17.17;100.00;100989.00;5060725;28;20046;-82
2021/07/27 04:56:41;;;;;;;13.65;8.95;;;;;;;17.29;100.00;100976.94;5069476;28;20062;-83
2021/07/27 04:59:06;;;;;;;12.35;8.90;;;;;;;17.42;100.00;100996.66;5061908;28;20032;-84
2021/07/27 05:01:31;;;;;;;10.05;8.00;;;;;;;17.53;100.00;100982.91;5062227;28;20036;-83
2021/07/27 05:03:58;;;;;;;14.55;8.45;;;;;;;17.60;100.00;100977.69;5079936;28;20086;-82
2021/07/27 05:06:23;;;;;;;9.27;7.53;;;;;;;17.65;100.00;100991.19;5063411;28;20126;-83
2021/07/27 05:08:49;;;;;;;11.60;8.18;;;;;;;17.67;100.00;100995.31;5076684;28;20121;-83
2021/07/27 05:11:15;;;;;;;9.93;7.82;;;;;;;17.74;100.00;100995.38;5089198;28;20087;-82
2021/07/27 05:13:41;;;;;;;9.40;7.47;;;;;;;17.81;100.00;100982.19;5080619;28;20054;-83
2021/07/27 05:16:06;;;;;;;14.65;8.30;;;;;;;17.85;100.00;100986.16;5080036;28;20030;-83
2021/07/27 05:18:32;;;;;;;13.68;8.27;;;;;;;17.88;100.00;100991.09;5076516;28;20036;-83
2021/07/27 05:20:58;;;;;;;11.20;8.13;;;;;;;17.88;100.00;100991.09;5064810;28;20127;-82
2021/07/27 05:23:30;;;;;;;19.23;8.68;;;;;;;18.01;99.92;100985.09;5060522;28;20111;-84
2021/07/27 05:25:56;;;;;;;;;;;;;;;18.08;100.00;100986.81;5079479;28;20031;-84
2021/07/27 05:28:28;;;;;;;11.75;8.57;;;;;;;18.14;98.79;100987.88;5069593;28;19934;-82
2021/07/27 05:30:53;;;;;;;13.87;9.00;;;;;;;18.26;97.98;100985.53;5064054;28;20220;-82
2021/07/27 05:33:19;;;;;;;9.15;8.15;;;;;;;18.42;95.39;100987.91;5078711;28;20374;-79
2021/07/27 05:35:44;;;;;;;13.68;8.57;;;;;;;18.48;94.78;100976.50;5083475;28;20036;-81
2021/07/27 05:38:10;;;;;;;14.25;8.73;;;;;;;18.67;93.06;100992.78;5079973;28;20027;-81
2021/07/27 05:40:35;;;;;;;17.42;9.20;;;;;;;18.72;92.12;100986.88;5096368;28;20112;-82
2021/07/27 05:43:01;;;;;;;14.38;9.35;;;;;;;18.83;91.68;100989.84;5062177;28;20028;-81
2021/07/27 05:45:26;;;;;;;11.43;8.70;;;;;;;18.93;92.45;100988.66;5086124;28;20024;-83
2021/07/27 05:47:53;;;;;;;12.70;8.85;;;;;;;19.01;90.46;100977.91;5071152;28;20023;-81
2021/07/27 05:50:21;;;;;;;11.57;9.20;;;;;;;19.26;90.02;100992.31;5062782;28;20384;-83
2021/07/27 05:52:46;;;;;;;11.23;8.82;;;;;;;19.30;89.56;100984.78;5060587;28;20039;-79
2021/07/27 05:55:12;;;;;;;11.50;8.65;;;;;;;19.28;88.75;100986.81;5078166;28;20028;-84
2021/07/27 05:57:38;;;;;;;14.10;9.60;;;;;;;19.23;88.71;100991.91;5111678;28;20023;-84
2021/07/27 06:00:05;;;;;;;14.90;8.98;;;;;;;19.24;90.77;100989.03;5073894;28;20118;-85
2021/07/27 06:02:34;;;;;;;13.10;9.52;;;;;;;19.26;91.03;100983.53;5086509;28;20469;-80
2021/07/27 06:04:59;;;;;;;12.30;9.23;;;;;;;19.24;91.42;100986.38;5065521;28;20118;-84
2021/07/27 06:07:25;;;;;;;14.18;11.48;;;;;;;19.32;89.79;100985.41;5068525;28;20396;-84
2021/07/27 06:09:50;;;;;;;14.25;10.55;;;;;;;19.41;89.67;100986.06;5079809;28;20091;-84
2021/07/27 06:12:17;;;;;;;14.32;10.52;;;;;;;19.61;88.48;100988.78;5089016;28;20028;-82
2021/07/27 06:14:42;;;;;;;15.02;10.73;;;;;;;19.77;87.01;100983.13;5083448;28;20036;-84
2021/07/27 06:17:12;;;;;;;14.73;11.48;;;;;;;19.87;84.68;100989.88;5078689;28;20035;-84
2021/07/27 06:19:37;;;;;;;13.73;9.93;;;;;;;19.91;84.98;100991.97;5096867;28;20619;-84
2021/07/27 06:22:03;;;;;;;14.23;10.45;;;;;;;20.01;84.24;100991.56;5078417;28;20127;-83
2021/07/27 06:24:28;;;;;;;14.75;10.48;;;;;;;20.10;82.86;100995.69;5095349;28;20062;-85
2021/07/27 06:26:54;;;;;;;13.50;9.23;;;;;;;20.09;83.49;100994.03;5064687;28;20039;-79
2021/07/27 06:29:20;;;;;;;10.50;9.27;;;;;;;20.16;82.83;100996.72;5082377;28;20043;-85
2021/07/27 06:31:45;;;;;;;10.48;8.43;;;;;;;20.21;83.26;100995.06;5061605;28;20032;-84
2021/07/27 06:34:12;;;;;;;13.65;8.27;;;;;;;20.30;81.83;101000.19;5108709;28;20034;-81
2021/07/27 06:36:37;;;;;;;11.05;8.38;;;;;;;20.37;83.62;100998.34;5081796;28;20035;-81
2021/07/27 06:39:03;;;;;;;13.30;8.57;;;;;;;20.56;82.05;101002.84;5075896;28;20416;-80
2021/07/27 06:41:29;;;;;;;11.07;8.13;;;;;;;20.65;80.66;101008.00;5063914;28;20036;-84
2021/07/27 06:43:56;;;;;;;10.93;9.32;;;;;;;20.68;79.63;101004.91;5060592;28;20031;-81
2021/07/27 06:46:21;;;;;;;9.73;8.10;;;;;;;20.73;80.77;101010.44;5072348;28;20034;-83
2021/07/27 06:48:47;;;;;;;11.60;8.27;;;;;;;20.92;80.71;101014.09;5079649;28;20039;-83
2021/07/27 06:51:14;;;;;;;12.10;8.18;;;;;;;21.04;79.10;101008.94;5083054;28;20657;-82
2021/07/27 06:53:41;;;;;;;11.18;7.88;;;;;;;21.11;79.71;101013.22;5062780;28;20466;-82
2021/07/27 06:56:07;;;;;;;9.85;7.72;;;;;;;20.94;78.93;101012.84;5077125;28;20101;-81
2021/07/27 06:58:35;;;;;;;12.70;8.68;;;;;;;20.69;79.80;101014.56;5108767;28;20118;-82
2021/07/27 07:01:09;;;;;;;13.10;8.38;;;;;;;20.64;80.02;101011.69;5060005;28;20043;-81
2021/07/27 07:03:36;;;;;;;10.48;9.25;;;;;;;20.80;79.04;101012.06;5068613;28;20028;-81
2021/07/27 07:06:03;;;;;;;10.93;7.70;;;;;;;20.91;80.35;101018.63;5089469;28;20035;-84
2021/07/27 07:08:28;;;;;;;10.30;8.27;;;;;;;21.10;78.94;101016.94;5090514;28;20032;-80
2021/07/27 07:10:59;;;;;;;12.85;9.35;;;;;;;21.16;78.93;101009.94;5072166;28;20772;-84
2021/07/27 07:13:25;;;;;;;11.38;9.57;;;;;;;21.19;78.50;101015.69;5095270;28;20031;-84
2021/07/27 07:15:52;;;;;;;13.23;10.07;;;;;;;21.24;77.38;101023.03;5064756;28;20046;-85
2021/07/27 07:18:17;;;;;;;11.25;9.02;;;;;;;21.15;78.07;101006.47;5080426;28;20116;-82
2021/07/27 07:20:43;;;;;;;15.38;10.95;;;;;;;21.46;75.48;101017.47;5079027;28;20442;-87
2021/07/27 07:23:09;;;;;;;14.20;10.40;;;;;;;21.70;74.30;101022.06;5078072;28;20114;-85
2021/07/27 07:25:43;;;;;;;12.10;9.27;;;;;;;21.83;74.65;101013.16;5071305;28;20482;-85
2021/07/27 07:28:20;;;;;;;13.98;9.52;;;;;;;22.00;73.34;101026.00;5094141;28;20481;-83
2021/07/27 07:30:46;;;;;;;12.32;8.80;;;;;;;22.09;73.57;101017.50;5063295;28;20062;-85
2021/07/27 07:33:11;;;;;;;10.73;7.57;;;;;;;22.14;74.36;101023.03;5064662;28;20469;-87
2021/07/27 07:35:37;;;;;;;10.85;7.43;;;;;;;22.30;72.51;101018.19;5071960;28;20071;-84
2021/07/27 07:38:03;;;;;;;12.23;7.70;;;;;;;22.22;72.63;101021.13;5057234;28;20035;-85
2021/07/27 07:40:29;;;;;;;9.57;7.60;;;;;;;22.01;72.69;101025.78;5090742;28;20034;-86
2021/07/27 07:42:59;;;;;;;10.55;7.95;;;;;;;21.79;73.14;101025.28;5060862;28;20028;-84
2021/07/27 07:45:25;;;;;;;11.27;8.75;;;;;;;21.62;73.86;101024.97;5076993;28;20035;-85
2021/07/27 07:47:50;;;;;;;14.90;9.90;;;;;;;21.62;73.19;101030.31;5067908;28;20485;-85
2021/07/27 07:50:16;;;;;;;13.10;9.10;;;;;;;21.94;71.53;101027.66;5059735;28;20085;-83
2021/07/27 07:52:41;;;;;;;10.40;7.53;;;;;;;22.29;71.10;101024.59;5055444;28;20032;-83
2021/07/27 07:55:08;;;;;;;9.23;6.95;;;;;;;22.67;68.92;101029.81;5070591;28;20040;-84
2021/07/27 07:57:34;;;;;;;8.25;6.70;;;;;;;22.86;68.16;101028.00;5091648;28;20035;-83
2021/07/27 08:00:01;;;;;;;7.22;6.43;;;;;;;22.96;68.06;101029.34;5067759;28;20050;-83
2021/07/27 08:02:30;;;;;;;9.93;7.28;;;;;;;23.12;65.74;101028.78;5079600;28;20511;-83
2021/07/27 08:04:56;;;;;;;8.95;6.05;;;;;;;23.18;66.68;101033.25;5058647;28;20040;-84
2021/07/27 08:07:22;;;;;;;7.35;5.90;;;;;;;23.23;67.78;101030.72;5078725;28;20038;-84
2021/07/27 08:09:48;;;;;;;7.97;6.15;;;;;;;22.98;67.41;101030.78;5066642;28;20608;-85
2021/07/27 08:12:14;;;;;;;12.25;7.20;;;;;;;23.11;67.52;101041.34;5080146;28;20027;-84
2021/07/27 08:14:40;;;;;;;7.97;6.55;;;;;;;23.19;67.24;101037.56;5059670;28;20024;-84
2021/07/27 08:17:05;;;;;;;6.60;5.93;;;;;;;23.12;67.17;101028.78;5078862;28;20393;-84
2021/07/27 08:19:31;;;;;;;9.98;6.50;;;;;;;23.20;67.16;101036.50;5095528;28;20504;-82
2021/07/27 08:21:57;;;;;;;8.93;5.68;;;;;;;23.57;66.42;101041.03;5091748;28;20064;-82
2021/07/27 08:24:24;;;;;;;9.18;6.72;;;;;;;23.26;65.68;101034.78;5074747;28;20047;-81
2021/07/27 08:26:50;;;;;;;6.22;5.63;;;;;;;22.89;67.89;101045.47;5078324;28;20647;-83
2021/07/27 08:29:15;;;;;;;8.05;5.80;;;;;;;22.65;69.55;101042.59;5058182;28;20059;-83
2021/07/27 08:31:42;;;;;;;7.60;5.60;;;;;;;22.81;68.33;101043.91;5078633;28;20027;-86
2021/07/27 08:34:07;;;;;;;8.27;5.45;;;;;;;23.04;67.46;101040.59;5058969;28;21482;-84
2021/07/27 08:36:33;;;;;;;6.38;5.70;;;;;;;22.81;67.74;101043.06;5089028;28;20065;-84
2021/07/27 08:38:58;;;;;;;8.82;4.95;;;;;;;22.69;69.26;101040.28;5051136;28;20493;-85
2021/07/27 08:41:28;;;;;;;9.88;5.18;;;;;;;22.63;69.09;101031.28;5089647;28;20027;-85
2021/07/27 08:43:54;;;;;;;6.75;5.18;;;;;;;22.90;67.80;101037.19;5057932;28;20493;-83
2021/07/27 08:46:20;;;;;;;7.10;5.25;;;;;;;22.87;66.94;101043.00;5075607;28;20122;-83
2021/07/27 08:48:46;;;;;;;7.55;5.82;;;;;;;22.84;67.17;101042.63;5061230;28;20032;-84
2021/07/27 08:51:12;;;;;;;7.03;5.63;;;;;;;22.92;67.97;101047.69;5063465;28;20083;-82
2021/07/27 08:53:38;;;;;;;9.82;6.03;;;;;;;23.29;66.25;101048.56;5072329;28;20042;-85
2021/07/27 08:56:04;;;;;;;10.57;5.30;;;;;;;23.66;66.06;101039.69;5085073;28;20028;-83
2021/07/27 08:58:29;;;;;;;6.15;4.63;;;;;;;23.84;65.35;101050.34;5060625;28;20032;-84
2021/07/27 09:00:55;;;;;;;9.18;5.07;;;;;;;23.89;64.72;101053.19;5085693;28;20035;-84
2021/07/27 09:03:21;;;;;;;7.63;4.68;;;;;;;23.67;65.53;101052.81;5076336;28;20028;-83
2021/07/27 09:05:47;;;;;;;8.35;5.90;;;;;;;23.48;65.73;101056.56;5087469;28;20028;-85
2021/07/27 09:08:15;;;;;;;8.13;4.82;;;;;;;23.31;67.40;101059.84;5078550;28;20036;-85
2021/07/27 09:10:42;;;;;;;7.85;4.82;;;;;;;23.12;69.47;101063.56;5072672;28;20028;-83
2021/07/27 09:13:11;;;;;;;6.72;4.72;;;;;;;22.91;70.16;101065.59;5057233;28;20043;-84
2021/07/27 09:15:42;;;;;;;9.48;5.18;;;;;;;22.65;69.96;101058.63;5054726;28;20035;-81
2021/07/27 09:18:15;;;;;;;5.50;4.38;;;;;;;22.40;67.68;101065.84;5060532;28;20039;-84
2021/07/27 09:20:52;;;;;;;5.38;4.10;;;;;;;22.37;67.21;101059.06;5082805;28;20042;-84
2021/07/27 09:23:28;;;;;;;5.43;4.00;;;;;;;22.51;65.82;101065.13;5109200;28;20055;-84
2021/07/27 09:25:58;;;;;;;8.48;4.90;;;;;;;22.67;67.67;101059.22;5057595;28;20089;-85
2021/07/27 09:28:25;;;;;;;6.05;3.90;;;;;;;22.85;68.39;101063.81;5070293;28;20128;-85
2021/07/27 09:30:57;;;;;;;5.82;3.67;;;;;;;22.99;66.33;101067.16;5092415;28;20058;-85
2021/07/27 09:33:27;;;;;;;;;;;;;;;23.44;67.03;101068.78;5061618;28;20523;-84
2021/07/27 09:35:53;;;;;;;4.47;4.07;;;;;;;23.81;63.86;101066.91;5067651;28;19916;-85
2021/07/27 09:38:19;;;;;;;6.70;4.40;;;;;;;23.80;61.57;101064.44;5094530;28;20034;-85
2021/07/27 09:40:51;;;;;;;6.30;4.45;;;;;;;23.88;61.03;101066.78;5076805;28;20287;-83
2021/07/27 09:43:22;;;;;;;6.70;4.03;;;;;;;23.54;64.82;101070.91;5090428;28;20030;-84
2021/07/27 09:45:54;;;;;;;9.77;4.40;;;;;;;23.09;65.39;101050.63;5059091;28;20150;-83
2021/07/27 09:48:23;;;;;;;6.55;5.57;;;;;;;22.76;65.28;101064.31;5094533;28;20031;-85
2021/07/27 09:50:51;;;;;;;8.10;5.45;;;;;;;22.58;68.03;101062.41;5094001;28;20409;-84
2021/07/27 09:53:17;;;;;;;6.93;5.40;;;;;;;22.39;68.02;101067.69;5060945;28;20035;-83
2021/07/27 09:55:43;;;;;;;7.15;6.10;;;;;;;22.36;67.76;101065.47;5065371;28;20039;-84
2021/07/27 09:58:09;;;;;;;8.68;7.07;;;;;;;22.42;68.50;101061.09;5057252;28;20028;-84
2021/07/27 10:00:54;;;;;;;14.02;6.75;;;;;;;22.42;68.60;101061.91;5093980;28;20370;-82
2021/07/27 10:03:25;;;;;;;9.32;6.35;;;;;;;22.61;68.93;101064.66;5061623;28;20028;-82
2021/07/27 10:05:56;;;;;;;10.40;7.13;;;;;;;22.82;68.99;101061.56;5062908;28;20031;-85
2021/07/27 10:08:34;;;;;;;10.50;6.97;;;;;;;23.21;67.85;101059.56;5094625;28;20035;-85
2021/07/27 10:11:11;;;;;;;10.60;7.72;;;;;;;23.92;65.10;101065.28;5054003;28;20420;-85
2021/07/27 10:13:40;;;;;;;11.85;7.57;;;;;;;23.98;64.06;101060.88;5060632;28;20034;-81
2021/07/27 10:16:06;;;;;;;10.15;6.75;;;;;;;24.27;62.86;101056.56;5076905;28;20062;-84
2021/07/27 10:18:34;;;;;;;9.73;6.55;;;;;;;24.32;64.06;101067.41;5055954;28;20035;-86
2021/07/27 10:21:25;;;;;;;8.52;7.03;;;;;;;23.93;63.47;101071.50;5072954;28;20127;-85
2021/07/27 10:23:57;;;;;;;7.22;6.30;;;;;;;23.96;63.95;101076.38;5052163;28;20027;-87
2021/07/27 10:26:31;;;;;;;;;;;;;;;24.18;65.58;101066.78;5085206;28;20035;-84
2021/07/27 10:28:57;;;;;;;8.00;5.80;;;;;;;24.66;62.99;101071.22;5083942;28;20782;-83
2021/07/27 10:31:37;;;;;;;9.00;6.65;;;;;;;24.89;59.29;101071.44;5073979;28;20036;-85
2021/07/27 10:34:07;;;;;;;7.47;6.20;;;;;;;25.34;59.66;101065.47;5067860;28;20040;-83
2021/07/27 10:36:36;;;;;;;8.23;6.85;;;;;;;25.70;56.15;101064.31;5072477;28;20056;-82
2021/07/27 10:39:06;;;;;;;6.60;5.80;;;;;;;25.57;57.01;101068.06;5056388;28;20047;-84
2021/07/27 10:41:37;;;;;;;7.75;5.53;;;;;;;25.40;59.38;101064.53;5092163;28;20027;-84
2021/07/27 10:44:08;;;;;;;7.70;5.30;;;;;;;25.82;56.29;101069.63;5077124;28;20023;-85
2021/07/27 10:46:38;;;;;;;8.90;4.82;;;;;;;25.87;55.58;101067.03;5102051;28;20497;-85
2021/07/27 10:49:04;;;;;;;6.45;4.95;;;;;;;26.09;54.14;101069.88;5063862;28;20055;-85
2021/07/27 10:51:36;;;;;;;8.85;5.93;;;;;;;26.00;53.98;101066.78;5071971;28;20039;-83
2021/07/27 10:54:04;;;;;;;6.20;5.57;;;;;;;25.56;55.81;101069.16;5065552;28;20028;-84
2021/07/27 10:56:31;;;;;;;7.82;4.72;;;;;;;25.04;56.56;101064.53;5070818;28;20486;-85
2021/07/27 10:58:58;;;;;;;7.07;5.25;;;;;;;24.91;59.97;101058.63;5098596;28;20035;-86
2021/07/27 11:01:32;;;;;;;6.90;5.18;;;;;;;25.30;58.07;101062.44;5082564;28;20032;-86
2021/07/27 11:04:11;;;;;;;5.40;4.90;;;;;;;25.93;56.72;101068.78;5077457;28;20024;-84
2021/07/27 11:06:37;;;;;;;5.75;4.60;;;;;;;26.29;56.93;101057.84;5096351;28;20075;-84
2021/07/27 11:09:05;;;;;;;6.53;5.25;;;;;;;26.20;56.45;101070.84;5088041;28;20058;-84
2021/07/27 11:11:42;;;;;;;8.70;5.07;;;;;;;25.92;55.57;101071.72;5063583;28;20044;-83
2021/07/27 11:14:07;;;;;;;5.97;5.10;;;;;;;25.50;56.63;101075.44;5087662;28;20028;-84
2021/07/27 11:16:41;;;;;;;8.63;6.10;;;;;;;25.47;56.55;101073.25;5073315;28;20480;-85
2021/07/27 11:19:09;;;;;;;8.43;5.85;;;;;;;25.37;56.56;101067.66;5075069;28;20059;-82
2021/07/27 11:21:35;;;;;;;7.95;5.85;;;;;;;25.08;55.91;101072.13;5091430;28;20036;-83
2021/07/27 11:24:07;;;;;;;5.75;5.05;;;;;;;25.16;59.76;101067.22;5072552;28;20028;-83
2021/07/27 11:26:37;;;;;;;7.72;5.50;;;;;;;25.18;57.91;101067.78;5095871;28;20036;-85
2021/07/27 11:29:10;;;;;;;7.13;5.10;;;;;;;25.36;59.45;101063.38;5080637;28;20079;-86
2021/07/27 11:31:46;;;;;;;9.07;6.70;;;;;;;25.27;57.22;101062.91;5062579;28;20034;-85
2021/07/27 11:34:12;;;;;;;9.13;5.95;;;;;;;25.35;56.57;101064.41;5094243;28;20451;-83
2021/07/27 11:36:37;;;;;;;8.02;5.72;;;;;;;25.53;56.54;101066.13;5063003;28;20031;-81
2021/07/27 11:39:07;;;;;;;8.63;6.03;;;;;;;25.82;54.37;101067.78;5084403;28;20031;-82
2021/07/27 11:41:32;;;;;;;7.35;5.97;;;;;;;25.75;54.11;101060.88;5063463;28;20032;-81